createdAt,value
2023-05-13T00:00:04.429Z,2.60
2023-05-13T00:01:15.311Z,2.10
2023-05-13T00:02:25.280Z,2.25
2023-05-13T00:03:35.296Z,2.22
2023-05-13T00:04:44.896Z,2.03
2023-05-13T00:05:54.120Z,2.50
2023-05-13T00:07:04.001Z,2.40
2023-05-13T00:08:13.700Z,2.33
2023-05-13T00:09:23.648Z,2.10
2023-05-13T00:10:33.865Z,2.72
2023-05-13T00:11:43.319Z,2.45
2023-05-13T00:12:52.895Z,2.45
2023-05-13T00:14:02.842Z,2.20
2023-05-13T00:15:12.618Z,2.55
2023-05-13T00:16:22.028Z,2.35
2023-05-13T00:17:32.016Z,2.35
2023-05-13T00:18:41.954Z,2.58
2023-05-13T00:19:52.438Z,2.55
2023-05-13T00:21:02.479Z,2.40
2023-05-13T00:22:12.038Z,2.47
2023-05-13T00:23:21.811Z,2.35
2023-05-13T00:24:31.474Z,2.10
2023-05-13T00:25:40.480Z,2.20
2023-05-13T00:26:50.007Z,2.47
2023-05-13T00:27:59.562Z,2.30
2023-05-13T00:29:09.618Z,2.90
2023-05-13T00:30:19.228Z,2.28
2023-05-13T00:31:29.263Z,2.42
2023-05-13T00:32:39.219Z,2.35
2023-05-13T00:33:49.285Z,2.40
2023-05-13T00:34:59.262Z,2.85
2023-05-13T00:36:09.345Z,2.55
2023-05-13T00:37:19.271Z,2.80
2023-05-13T00:38:28.749Z,2.70
2023-05-13T00:39:38.232Z,2.60
2023-05-13T00:40:48.732Z,2.42
2023-05-13T00:41:57.834Z,2.20
2023-05-13T00:43:07.436Z,2.30
2023-05-13T00:44:17.023Z,2.33
2023-05-13T00:45:27.274Z,2.22
2023-05-13T00:46:36.755Z,2.47
2023-05-13T00:47:47.524Z,2.40
2023-05-13T00:48:58.594Z,2.38
2023-05-13T00:50:09.795Z,2.75
2023-05-13T00:51:19.616Z,2.60
2023-05-13T00:52:30.026Z,2.92
2023-05-13T00:53:40.091Z,2.70
2023-05-13T00:54:50.120Z,3.10
2023-05-13T00:55:59.709Z,2.67
2023-05-13T00:57:09.592Z,2.22
2023-05-13T00:58:20.446Z,2.58
2023-05-13T00:59:30.638Z,2.28
2023-05-13T01:00:55.488Z,2.30
2023-05-13T01:02:23.560Z,2.40
2023-05-13T01:03:58.223Z,2.50
2023-05-13T01:05:19.325Z,2.10
2023-05-13T01:07:02.303Z,2.10
2023-05-13T01:08:35.594Z,2.15
2023-05-13T01:10:28.644Z,2.22
2023-05-13T01:11:44.657Z,2.85
2023-05-13T01:13:00.304Z,2.70
2023-05-13T01:14:13.120Z,2.33
2023-05-13T01:15:29.725Z,2.45
2023-05-13T01:16:49.882Z,2.22
2023-05-13T01:18:06.333Z,2.38
2023-05-13T01:19:37.757Z,2.85
2023-05-13T01:20:56.551Z,2.13
2023-05-13T01:22:06.738Z,2.08
2023-05-13T01:23:16.650Z,2.20
2023-05-13T01:24:25.842Z,2.25
2023-05-13T01:25:35.366Z,2.20
2023-05-13T01:26:45.188Z,2.30
2023-05-13T01:27:55.351Z,2.20
2023-05-13T01:29:05.878Z,1.80
2023-05-13T01:30:16.309Z,2.35
2023-05-13T01:31:26.032Z,2.08
2023-05-13T01:32:37.979Z,2.13
2023-05-13T01:33:49.002Z,2.30
2023-05-13T01:34:59.645Z,2.20
2023-05-13T01:36:09.907Z,2.10
2023-05-13T01:37:21.291Z,2.45
2023-05-13T01:38:31.803Z,1.92
2023-05-13T01:39:41.804Z,2.35
2023-05-13T01:40:51.755Z,2.42
2023-05-13T01:42:01.696Z,2.10
2023-05-13T01:43:13.298Z,1.90
2023-05-13T01:44:23.181Z,2.28
2023-05-13T01:45:32.946Z,2.13
2023-05-13T01:46:45.320Z,2.05
2023-05-13T01:47:55.375Z,2.05
2023-05-13T01:49:05.438Z,2.08
2023-05-13T01:50:15.375Z,2.00
2023-05-13T01:51:25.017Z,2.17
2023-05-13T01:52:35.001Z,2.20
2023-05-13T01:53:45.011Z,2.10
2023-05-13T01:54:54.910Z,2.25
2023-05-13T01:56:04.626Z,2.28
2023-05-13T01:57:14.563Z,2.70
2023-05-13T01:58:24.475Z,2.50
2023-05-13T01:59:34.108Z,2.20
2023-05-13T02:00:43.571Z,2.30
2023-05-13T02:01:53.236Z,2.20
2023-05-13T02:03:05.030Z,2.03
2023-05-13T02:04:18.685Z,2.22
2023-05-13T02:05:28.230Z,2.25
2023-05-13T02:06:37.785Z,2.33
2023-05-13T02:07:47.791Z,2.10
2023-05-13T02:08:57.219Z,1.85
2023-05-13T02:10:06.959Z,2.63
2023-05-13T02:11:16.762Z,2.50
2023-05-13T02:12:26.837Z,2.22
2023-05-13T02:13:36.340Z,2.17
2023-05-13T02:14:45.885Z,2.30
2023-05-13T02:15:55.376Z,2.67
2023-05-13T02:17:04.957Z,2.25
2023-05-13T02:18:14.716Z,2.78
2023-05-13T02:19:24.453Z,2.03
2023-05-13T02:20:33.958Z,2.10
2023-05-13T02:21:43.924Z,1.90
2023-05-13T02:22:53.274Z,1.67
2023-05-13T02:24:03.595Z,1.73
2023-05-13T02:25:13.145Z,2.30
2023-05-13T02:26:22.754Z,2.60
2023-05-13T02:27:32.665Z,2.15
2023-05-13T02:28:42.649Z,1.83
2023-05-13T02:29:51.946Z,1.73
2023-05-13T02:31:01.182Z,2.00
2023-05-13T02:32:10.861Z,1.90
2023-05-13T02:33:20.197Z,2.10
2023-05-13T02:34:29.698Z,1.95
2023-05-13T02:35:52.540Z,2.22
2023-05-13T02:37:03.216Z,1.80
2023-05-13T02:38:12.330Z,1.85
2023-05-13T02:39:21.831Z,1.80
2023-05-13T02:40:30.855Z,2.17
2023-05-13T02:41:40.412Z,2.10
2023-05-13T02:42:50.333Z,1.83
2023-05-13T02:43:59.901Z,2.08
2023-05-13T02:45:10.056Z,2.22
2023-05-13T02:46:19.047Z,1.80
2023-05-13T02:47:29.592Z,1.83
2023-05-13T02:48:39.082Z,1.70
2023-05-13T02:49:48.951Z,1.98
2023-05-13T02:50:58.121Z,2.00
2023-05-13T02:52:07.695Z,1.80
2023-05-13T02:53:17.564Z,1.80
2023-05-13T02:54:27.180Z,2.20
2023-05-13T02:55:37.187Z,1.65
2023-05-13T02:56:47.149Z,1.67
2023-05-13T02:57:56.705Z,2.10
2023-05-13T02:59:07.728Z,1.73
2023-05-13T03:00:17.222Z,1.77
2023-05-13T03:01:26.964Z,1.70
2023-05-13T03:02:37.363Z,1.70
2023-05-13T03:03:47.296Z,1.90
2023-05-13T03:04:56.842Z,1.90
2023-05-13T03:06:06.401Z,1.83
2023-05-13T03:07:15.909Z,1.80
2023-05-13T03:08:25.936Z,2.00
2023-05-13T03:09:35.836Z,1.95
2023-05-13T03:10:44.802Z,1.70
2023-05-13T03:11:54.405Z,1.88
2023-05-13T03:13:04.861Z,2.10
2023-05-13T03:14:14.626Z,1.92
2023-05-13T03:15:24.304Z,1.80
2023-05-13T03:16:34.048Z,1.88
2023-05-13T03:17:48.320Z,2.10
2023-05-13T03:18:58.077Z,1.83
2023-05-13T03:20:07.921Z,1.65
2023-05-13T03:21:17.635Z,1.80
2023-05-13T03:22:27.889Z,1.80
2023-05-13T03:23:37.588Z,1.85
2023-05-13T03:24:47.014Z,1.80
2023-05-13T03:25:56.634Z,1.60
2023-05-13T03:27:05.583Z,1.70
2023-05-13T03:28:15.055Z,2.05
2023-05-13T03:29:24.672Z,2.05
2023-05-13T03:30:34.154Z,1.98
2023-05-13T03:31:43.874Z,1.92
2023-05-13T03:32:53.806Z,1.60
2023-05-13T03:34:03.805Z,1.80
2023-05-13T03:35:13.657Z,1.90
2023-05-13T03:36:23.241Z,2.03
2023-05-13T03:37:32.777Z,2.60
2023-05-13T03:38:42.273Z,1.85
2023-05-13T03:39:51.852Z,1.70
2023-05-13T03:41:01.825Z,2.10
2023-05-13T03:42:11.348Z,1.98
2023-05-13T03:43:20.988Z,1.65
2023-05-13T03:44:30.874Z,1.67
2023-05-13T03:45:40.352Z,1.60
2023-05-13T03:46:50.092Z,1.77
2023-05-13T03:47:59.902Z,1.52
2023-05-13T03:49:09.931Z,1.52
2023-05-13T03:50:19.517Z,1.65
2023-05-13T03:51:29.475Z,1.70
2023-05-13T03:52:39.437Z,1.73
2023-05-13T03:53:48.991Z,1.58
2023-05-13T03:54:59.044Z,1.50
2023-05-13T03:56:09.010Z,1.60
2023-05-13T03:57:18.543Z,1.40
2023-05-13T03:58:28.042Z,1.50
2023-05-13T03:59:38.084Z,1.42
2023-05-13T04:00:50.408Z,1.30
2023-05-13T04:02:00.289Z,1.30
2023-05-13T04:03:10.153Z,1.60
2023-05-13T04:04:19.688Z,1.25
2023-05-13T04:05:29.092Z,1.20
2023-05-13T04:06:38.686Z,1.40
2023-05-13T04:07:48.609Z,1.00
2023-05-13T04:08:59.796Z,1.13
2023-05-13T04:10:15.680Z,1.00
2023-05-13T04:11:25.682Z,1.30
2023-05-13T04:12:35.245Z,1.00
2023-05-13T04:13:44.677Z,1.13
2023-05-13T04:14:54.308Z,1.00
2023-05-13T04:16:04.414Z,1.30
2023-05-13T04:17:14.444Z,1.13
2023-05-13T04:18:23.926Z,1.23
2023-05-13T04:19:33.822Z,1.05
2023-05-13T04:20:43.423Z,1.05
2023-05-13T04:21:52.932Z,1.00
2023-05-13T04:23:02.898Z,1.20
2023-05-13T04:24:12.389Z,1.15
2023-05-13T04:25:21.992Z,1.10
2023-05-13T04:26:33.489Z,0.90
2023-05-13T04:27:43.133Z,1.13
2023-05-13T04:28:53.434Z,1.20
2023-05-13T04:30:03.239Z,1.05
2023-05-13T04:31:22.823Z,1.10
2023-05-13T04:32:32.785Z,0.98
2023-05-13T04:33:42.168Z,1.00
2023-05-13T04:34:52.661Z,1.25
2023-05-13T04:36:02.594Z,0.93
2023-05-13T04:37:11.959Z,0.95
2023-05-13T04:38:21.314Z,1.00
2023-05-13T04:39:30.756Z,1.30
2023-05-13T04:40:43.197Z,1.40
2023-05-13T04:41:52.714Z,0.93
2023-05-13T04:43:02.314Z,1.02
2023-05-13T04:44:12.266Z,1.20
2023-05-13T04:45:21.799Z,1.02
2023-05-13T04:46:31.158Z,1.25
2023-05-13T04:47:40.863Z,1.00
2023-05-13T04:48:50.352Z,1.00
2023-05-13T04:50:00.464Z,0.88
2023-05-13T04:51:10.417Z,1.15
2023-05-13T04:52:20.916Z,0.80
2023-05-13T04:53:31.465Z,0.70
2023-05-13T04:54:40.983Z,0.93
2023-05-13T04:55:50.590Z,1.10
2023-05-13T04:57:00.604Z,1.15
2023-05-13T04:58:10.471Z,1.02
2023-05-13T04:59:20.295Z,1.00
2023-05-13T05:00:30.126Z,1.00
2023-05-13T05:01:40.215Z,0.98
2023-05-13T05:02:50.173Z,0.90
2023-05-13T05:04:00.014Z,0.95
2023-05-13T05:05:10.199Z,0.95
2023-05-13T05:06:19.698Z,1.08
2023-05-13T05:07:29.330Z,1.00
2023-05-13T05:08:39.228Z,1.20
2023-05-13T05:09:49.159Z,1.02
2023-05-13T05:10:59.427Z,1.10
2023-05-13T05:12:09.304Z,0.88
2023-05-13T05:13:18.672Z,0.90
2023-05-13T05:14:28.339Z,0.90
2023-05-13T05:15:37.935Z,1.02
2023-05-13T05:16:47.923Z,1.10
2023-05-13T05:17:57.836Z,1.02
2023-05-13T05:19:07.912Z,1.00
2023-05-13T05:20:17.943Z,1.20
2023-05-13T05:21:27.493Z,0.80
2023-05-13T05:22:37.634Z,1.10
2023-05-13T05:23:47.210Z,0.73
2023-05-13T05:24:57.021Z,0.80
2023-05-13T05:26:11.700Z,0.70
2023-05-13T05:27:21.833Z,0.90
2023-05-13T05:28:31.576Z,0.85
2023-05-13T05:29:41.770Z,0.70
2023-05-13T05:30:51.804Z,1.10
2023-05-13T05:32:01.779Z,0.82
2023-05-13T05:33:11.711Z,0.88
2023-05-13T05:34:21.696Z,0.82
2023-05-13T05:35:31.031Z,0.88
2023-05-13T05:36:40.891Z,1.00
2023-05-13T05:37:51.082Z,0.88
2023-05-13T05:39:03.871Z,1.00
2023-05-13T05:40:13.521Z,0.80
2023-05-13T05:41:23.411Z,0.98
2023-05-13T05:42:33.315Z,0.80
2023-05-13T05:43:43.023Z,0.90
2023-05-13T05:44:52.453Z,0.90
2023-05-13T05:46:02.250Z,0.98
2023-05-13T05:47:12.133Z,0.90
2023-05-13T05:48:21.764Z,1.30
2023-05-13T05:49:31.638Z,1.00
2023-05-13T05:50:41.304Z,0.85
2023-05-13T05:51:51.242Z,0.93
2023-05-13T05:53:00.865Z,0.98
2023-05-13T05:54:10.800Z,0.88
2023-05-13T05:55:20.582Z,1.00
2023-05-13T05:56:30.412Z,1.25
2023-05-13T05:57:40.004Z,1.08
2023-05-13T05:58:49.507Z,1.00
2023-05-13T05:59:59.022Z,1.13
2023-05-13T06:01:09.068Z,1.20
2023-05-13T06:02:18.604Z,1.20
2023-05-13T06:03:28.210Z,1.30
2023-05-13T06:04:38.194Z,1.05
2023-05-13T06:05:48.221Z,1.30
2023-05-13T06:06:58.173Z,1.55
2023-05-13T06:08:07.759Z,1.80
2023-05-13T06:09:18.320Z,1.60
2023-05-13T06:10:28.368Z,1.60
2023-05-13T06:11:38.015Z,1.60
2023-05-13T06:12:47.872Z,1.90
2023-05-13T06:13:57.432Z,1.60
2023-05-13T06:15:07.930Z,1.63
2023-05-13T06:16:17.555Z,1.70
2023-05-13T06:17:27.647Z,1.50
2023-05-13T06:18:37.525Z,1.52
2023-05-13T06:19:47.604Z,1.50
2023-05-13T06:20:57.127Z,1.85
2023-05-13T06:22:06.649Z,1.40
2023-05-13T06:23:16.235Z,1.60
2023-05-13T06:24:25.831Z,1.60
2023-05-13T06:25:35.799Z,1.92
2023-05-13T06:26:45.442Z,1.48
2023-05-13T06:27:55.307Z,1.90
2023-05-13T06:29:04.929Z,1.77
2023-05-13T06:30:14.419Z,1.38
2023-05-13T06:31:24.022Z,1.55
2023-05-13T06:32:34.075Z,1.60
2023-05-13T06:33:43.575Z,1.80
2023-05-13T06:34:54.624Z,1.70
2023-05-13T06:36:06.232Z,2.10
2023-05-13T06:37:15.648Z,1.88
2023-05-13T06:38:25.266Z,1.98
2023-05-13T06:39:35.144Z,2.10
2023-05-13T06:40:45.082Z,2.03
2023-05-13T06:41:54.352Z,2.03
2023-05-13T06:43:04.099Z,1.95
2023-05-13T06:44:13.785Z,2.00
2023-05-13T06:45:23.434Z,2.42
2023-05-13T06:46:33.851Z,2.30
2023-05-13T06:47:43.390Z,2.20
2023-05-13T06:48:53.348Z,2.58
2023-05-13T06:50:03.432Z,2.22
2023-05-13T06:51:12.964Z,2.20
2023-05-13T06:52:23.139Z,2.55
2023-05-13T06:53:33.060Z,2.30
2023-05-13T06:54:42.570Z,2.50
2023-05-13T06:55:52.191Z,2.40
2023-05-13T06:57:02.109Z,2.88
2023-05-13T06:58:11.817Z,2.72
2023-05-13T06:59:21.709Z,2.90
2023-05-13T07:00:31.732Z,2.40
2023-05-13T07:01:41.473Z,2.33
2023-05-13T07:02:51.360Z,2.35
2023-05-13T07:04:01.153Z,2.08
2023-05-13T07:05:11.698Z,2.20
2023-05-13T07:06:21.552Z,2.60
2023-05-13T07:07:31.269Z,2.42
2023-05-13T07:08:41.165Z,2.40
2023-05-13T07:09:50.845Z,2.85
2023-05-13T07:11:00.845Z,2.92
2023-05-13T07:12:10.920Z,2.75
2023-05-13T07:13:20.967Z,3.20
2023-05-13T07:14:31.066Z,2.58
2023-05-13T07:15:40.868Z,2.90
2023-05-13T07:16:50.889Z,2.53
2023-05-13T07:18:00.948Z,2.55
2023-05-13T07:19:10.687Z,2.55
2023-05-13T07:20:20.659Z,2.45
2023-05-13T07:21:30.501Z,2.70
2023-05-13T07:22:40.350Z,1.75
2023-05-13T07:23:50.402Z,2.17
2023-05-13T07:25:00.247Z,1.73
2023-05-13T07:26:10.097Z,1.73
2023-05-13T07:27:19.532Z,1.42
2023-05-13T07:28:29.290Z,1.60
2023-05-13T07:29:39.321Z,1.75
2023-05-13T07:30:49.448Z,1.40
2023-05-13T07:32:03.285Z,1.70
2023-05-13T07:33:13.382Z,1.73
2023-05-13T07:34:23.274Z,1.92
2023-05-13T07:35:33.150Z,2.00
2023-05-13T07:36:42.913Z,1.88
2023-05-13T07:37:53.092Z,1.60
2023-05-13T07:39:03.123Z,1.92
2023-05-13T07:40:12.904Z,2.00
2023-05-13T07:41:22.945Z,1.73
2023-05-13T07:42:33.110Z,2.30
2023-05-13T07:43:42.952Z,2.72
2023-05-13T07:44:52.720Z,2.75
2023-05-13T07:46:03.080Z,3.00
2023-05-13T07:47:13.806Z,2.83
2023-05-13T07:48:23.822Z,3.10
2023-05-13T07:49:34.653Z,2.78
2023-05-13T07:50:47.714Z,3.08
2023-05-13T07:51:57.492Z,2.70
2023-05-13T07:53:07.495Z,2.20
2023-05-13T07:54:18.768Z,2.38
2023-05-13T07:55:30.277Z,2.70
2023-05-13T07:56:40.513Z,2.80
2023-05-13T07:57:50.544Z,2.60
2023-05-13T07:59:00.394Z,2.67
2023-05-13T08:00:10.722Z,2.97
2023-05-13T08:01:20.633Z,3.00
2023-05-13T08:02:30.755Z,3.10
2023-05-13T08:03:41.510Z,3.47
2023-05-13T08:04:51.624Z,3.38
2023-05-13T08:06:01.601Z,3.58
2023-05-13T08:07:11.391Z,4.07
2023-05-13T08:08:21.271Z,4.00
2023-05-13T08:09:31.223Z,3.72
2023-05-13T08:10:40.972Z,3.50
2023-05-13T08:11:50.883Z,4.10
2023-05-13T08:13:00.817Z,3.75
2023-05-13T08:14:10.843Z,3.60
2023-05-13T08:15:21.246Z,2.60
2023-05-13T08:16:31.538Z,2.13
2023-05-13T08:17:41.649Z,2.40
2023-05-13T08:18:51.752Z,2.25
2023-05-13T08:20:02.096Z,2.63
2023-05-13T08:21:11.981Z,2.15
2023-05-13T08:22:22.171Z,2.63
2023-05-13T08:23:44.031Z,2.30
2023-05-13T08:24:55.145Z,2.50
2023-05-13T08:26:05.167Z,2.47
2023-05-13T08:27:15.084Z,2.42
2023-05-13T08:28:25.137Z,2.30
2023-05-13T08:29:34.971Z,2.30
2023-05-13T08:30:44.942Z,2.75
2023-05-13T08:31:55.261Z,2.83
2023-05-13T08:33:05.405Z,3.00
2023-05-13T08:34:15.446Z,2.90
2023-05-13T08:35:25.354Z,2.90
2023-05-13T08:36:35.143Z,3.42
2023-05-13T08:37:45.071Z,3.15
2023-05-13T08:38:54.851Z,3.10
2023-05-13T08:40:05.041Z,3.67
2023-05-13T08:41:15.428Z,3.47
2023-05-13T08:42:26.628Z,3.38
2023-05-13T08:43:38.186Z,3.22
2023-05-13T08:44:49.113Z,3.28
2023-05-13T08:46:03.311Z,3.28
2023-05-13T08:47:41.123Z,2.88
2023-05-13T08:48:55.219Z,2.42
2023-05-13T08:50:06.895Z,2.50
2023-05-13T08:51:17.686Z,2.43
2023-05-13T08:52:29.162Z,2.25
2023-05-13T08:53:39.580Z,3.08
2023-05-13T08:54:50.189Z,2.40
2023-05-13T08:56:00.261Z,2.70
2023-05-13T08:57:10.235Z,2.70
2023-05-13T08:58:20.223Z,2.70
2023-05-13T08:59:30.336Z,2.40
2023-05-13T09:00:40.251Z,3.08
2023-05-13T09:01:52.662Z,3.20
2023-05-13T09:03:03.635Z,3.10
2023-05-13T09:04:13.716Z,2.55
2023-05-13T09:05:24.407Z,3.20
2023-05-13T09:06:34.807Z,3.10
2023-05-13T09:07:47.521Z,2.63
2023-05-13T09:08:57.523Z,2.20
2023-05-13T09:10:08.052Z,1.90
2023-05-13T09:11:18.720Z,1.90
2023-05-13T09:12:43.901Z,1.70
2023-05-13T09:14:01.319Z,2.30
2023-05-13T09:15:15.445Z,2.20
2023-05-13T09:16:27.731Z,2.38
2023-05-13T09:17:41.959Z,2.35
2023-05-13T09:18:58.244Z,2.00
2023-05-13T09:20:09.365Z,1.98
2023-05-13T09:21:23.675Z,2.00
2023-05-13T09:22:34.097Z,1.88
2023-05-13T09:23:46.808Z,2.10
2023-05-13T09:25:07.764Z,2.10
2023-05-13T09:26:27.983Z,1.90
2023-05-13T09:27:39.733Z,2.25
2023-05-13T09:29:16.069Z,1.98
2023-05-13T09:30:27.076Z,2.60
2023-05-13T09:31:38.091Z,2.40
2023-05-13T09:33:05.742Z,2.67
2023-05-13T09:34:24.836Z,2.78
2023-05-13T09:35:36.082Z,3.45
2023-05-13T09:36:55.012Z,2.83
2023-05-13T09:38:16.370Z,2.42
2023-05-13T09:39:27.132Z,2.50
2023-05-13T09:40:38.278Z,1.90
2023-05-13T09:41:52.294Z,2.20
2023-05-13T09:43:02.537Z,1.80
2023-05-13T09:44:13.081Z,2.30
2023-05-13T09:45:23.791Z,2.20
2023-05-13T09:46:34.668Z,1.35
2023-05-13T09:47:50.300Z,1.17
2023-05-13T09:49:01.218Z,1.25
2023-05-13T09:50:11.908Z,1.20
2023-05-13T09:51:28.499Z,0.90
2023-05-13T09:52:38.909Z,1.45
2023-05-13T09:53:49.098Z,1.40
2023-05-13T09:55:08.723Z,1.50
2023-05-13T09:56:22.929Z,1.23
2023-05-13T09:57:34.016Z,1.40
2023-05-13T09:58:50.778Z,1.38
2023-05-13T10:00:02.579Z,1.05
2023-05-13T10:01:12.840Z,1.00
2023-05-13T10:02:24.667Z,1.30
2023-05-13T10:03:34.767Z,1.48
2023-05-13T10:04:45.080Z,1.38
2023-05-13T10:05:56.686Z,1.17
2023-05-13T10:07:07.426Z,1.10
2023-05-13T10:08:18.092Z,1.10
2023-05-13T10:09:30.328Z,1.38
2023-05-13T10:10:42.130Z,1.23
2023-05-13T10:11:53.706Z,1.20
2023-05-13T10:13:08.517Z,1.15
2023-05-13T10:14:22.174Z,1.10
2023-05-13T10:15:32.803Z,1.50
2023-05-13T10:16:52.845Z,1.58
2023-05-13T10:18:07.239Z,1.10
2023-05-13T10:19:18.647Z,1.30
2023-05-13T10:20:28.892Z,1.15
2023-05-13T10:21:39.114Z,1.08
2023-05-13T10:22:50.357Z,0.90
2023-05-13T10:24:00.966Z,1.10
2023-05-13T10:25:11.229Z,1.30
2023-05-13T10:26:21.348Z,1.05
2023-05-13T10:27:32.795Z,1.40
2023-05-13T10:28:43.431Z,1.27
2023-05-13T10:29:54.194Z,1.20
2023-05-13T10:31:04.612Z,1.27
2023-05-13T10:32:17.810Z,1.20
2023-05-13T10:33:28.849Z,1.35
2023-05-13T10:34:40.065Z,1.10
2023-05-13T10:36:09.975Z,1.27
2023-05-13T10:37:45.772Z,1.10
2023-05-13T10:39:04.624Z,1.35
2023-05-13T10:40:25.543Z,1.20
2023-05-13T10:42:06.045Z,1.30
2023-05-13T10:43:28.985Z,1.42
2023-05-13T10:44:38.957Z,1.50
2023-05-13T10:45:57.497Z,1.50
2023-05-13T10:47:10.682Z,1.65
2023-05-13T10:48:20.670Z,1.20
2023-05-13T10:49:37.033Z,1.42
2023-05-13T10:50:54.547Z,1.52
2023-05-13T10:52:06.116Z,1.33
2023-05-13T10:53:20.583Z,1.77
2023-05-13T10:54:36.110Z,1.35
2023-05-13T10:55:59.710Z,1.58
2023-05-13T10:57:09.934Z,1.50
2023-05-13T10:58:29.822Z,1.55
2023-05-13T10:59:59.740Z,1.60
2023-05-13T11:01:25.266Z,1.30
2023-05-13T11:02:37.219Z,1.50
2023-05-13T11:03:51.807Z,1.33
2023-05-13T11:05:04.913Z,1.40
2023-05-13T11:06:23.412Z,1.58
2023-05-13T11:07:38.352Z,1.30
2023-05-13T11:08:56.279Z,1.40
2023-05-13T11:10:24.649Z,1.80
2023-05-13T11:11:35.721Z,1.50
2023-05-13T11:13:06.644Z,1.40
2023-05-13T11:14:16.524Z,1.10
2023-05-13T11:15:42.874Z,1.45
2023-05-13T11:16:53.115Z,1.00
2023-05-13T11:18:03.113Z,1.20
2023-05-13T11:19:30.100Z,1.52
2023-05-13T11:20:52.912Z,1.27
2023-05-13T11:22:14.094Z,1.27
2023-05-13T11:23:24.063Z,1.10
2023-05-13T11:25:03.443Z,1.27
2023-05-13T11:26:13.971Z,1.65
2023-05-13T11:27:23.917Z,1.10
2023-05-13T11:28:54.501Z,1.42
2023-05-13T11:30:23.996Z,1.80
2023-05-13T11:31:47.771Z,1.42
2023-05-13T11:32:58.725Z,1.30
2023-05-13T11:34:10.468Z,1.50
2023-05-13T11:35:21.500Z,1.48
2023-05-13T11:36:32.550Z,1.40
2023-05-13T11:37:44.092Z,1.45
2023-05-13T11:38:54.345Z,1.20
2023-05-13T11:40:08.523Z,1.30
2023-05-13T11:41:22.755Z,1.05
2023-05-13T11:42:33.518Z,1.30
2023-05-13T11:43:44.471Z,1.48
2023-05-13T11:44:54.723Z,1.27
2023-05-13T11:46:06.292Z,1.40
2023-05-13T11:47:25.802Z,0.95
2023-05-13T11:48:35.807Z,1.27
2023-05-13T11:49:46.050Z,1.20
2023-05-13T11:50:57.095Z,1.30
2023-05-13T11:52:08.607Z,1.05
2023-05-13T11:53:21.888Z,1.00
2023-05-13T11:54:31.965Z,0.82
2023-05-13T11:55:46.695Z,1.20
2023-05-13T11:57:14.227Z,1.00
2023-05-13T11:58:24.117Z,0.80
2023-05-13T11:59:41.933Z,1.00
2023-05-13T12:00:57.749Z,1.40
2023-05-13T12:02:12.445Z,0.90
2023-05-13T12:03:40.666Z,1.10
2023-05-13T12:05:00.469Z,1.02
2023-05-13T12:06:10.494Z,1.13
2023-05-13T12:07:21.325Z,1.10
2023-05-13T12:08:31.736Z,0.93
2023-05-13T12:09:44.210Z,1.13
2023-05-13T12:10:55.574Z,1.08
2023-05-13T12:12:05.959Z,0.95
2023-05-13T12:13:18.707Z,1.00
2023-05-13T12:14:29.646Z,1.20
2023-05-13T12:15:39.993Z,0.90
2023-05-13T12:16:50.460Z,1.27
2023-05-13T12:18:00.990Z,1.00
2023-05-13T12:19:10.939Z,1.05
2023-05-13T12:20:21.909Z,0.90
2023-05-13T12:21:32.565Z,1.17
2023-05-13T12:22:42.521Z,0.90
2023-05-13T12:23:53.672Z,1.05
2023-05-13T12:25:46.214Z,0.75
2023-05-13T12:27:04.077Z,0.93
2023-05-13T12:28:17.339Z,0.90
2023-05-13T12:29:27.388Z,0.98
2023-05-13T12:30:41.917Z,1.15
2023-05-13T12:32:16.494Z,2.97
2023-05-13T12:33:29.432Z,1.30
2023-05-13T12:34:40.139Z,0.90
2023-05-13T12:35:51.017Z,1.27
2023-05-13T12:37:14.531Z,1.60
2023-05-13T12:38:24.508Z,0.95
2023-05-13T12:39:34.412Z,0.90
2023-05-13T12:40:45.022Z,1.02
2023-05-13T12:41:54.870Z,1.00
2023-05-13T12:43:04.903Z,1.20
2023-05-13T12:44:16.072Z,2.00
2023-05-13T12:45:27.210Z,1.00
2023-05-13T12:46:38.745Z,1.20
2023-05-13T12:47:50.475Z,1.40
2023-05-13T12:49:01.179Z,0.98
2023-05-13T12:50:15.579Z,1.08
2023-05-13T12:51:25.622Z,1.10
2023-05-13T12:52:35.618Z,0.95
2023-05-13T12:53:45.592Z,0.82
2023-05-13T12:54:55.597Z,0.80
2023-05-13T12:56:05.878Z,0.90
2023-05-13T12:57:16.858Z,0.93
2023-05-13T12:58:26.740Z,0.95
2023-05-13T12:59:36.499Z,0.90
2023-05-13T13:00:46.550Z,0.88
2023-05-13T13:01:56.585Z,0.80
2023-05-13T13:03:06.547Z,0.60
2023-05-13T13:04:16.801Z,0.70
2023-05-13T13:05:26.957Z,0.50
2023-05-13T13:06:36.906Z,0.40
2023-05-13T13:07:47.043Z,0.75
2023-05-13T13:08:56.968Z,0.60
2023-05-13T13:10:07.097Z,0.50
2023-05-13T13:11:17.339Z,0.60
2023-05-13T13:12:27.228Z,0.60
2023-05-13T13:13:39.200Z,0.80
2023-05-13T13:14:49.519Z,0.60
2023-05-13T13:15:59.709Z,0.57
2023-05-13T13:17:10.030Z,0.30
2023-05-13T13:18:20.035Z,0.60
2023-05-13T13:19:29.973Z,0.60
2023-05-13T13:20:39.962Z,0.68
2023-05-13T13:21:50.252Z,0.30
2023-05-13T13:23:00.282Z,0.38
2023-05-13T13:24:10.181Z,0.43
2023-05-13T13:25:20.486Z,0.50
2023-05-13T13:26:30.741Z,0.43
2023-05-13T13:27:40.725Z,0.50
2023-05-13T13:28:50.681Z,0.57
2023-05-13T13:30:00.810Z,0.40
2023-05-13T13:31:11.039Z,0.30
2023-05-13T13:32:21.024Z,0.50
2023-05-13T13:33:31.083Z,0.52
2023-05-13T13:34:41.036Z,0.57
2023-05-13T13:35:50.947Z,0.40
2023-05-13T13:37:00.872Z,0.45
2023-05-13T13:38:10.897Z,0.40
2023-05-13T13:39:20.947Z,0.60
2023-05-13T13:40:30.899Z,0.40
2023-05-13T13:41:40.876Z,0.50
2023-05-13T13:42:50.789Z,0.50
2023-05-13T13:44:09.554Z,0.40
2023-05-13T13:45:19.549Z,0.40
2023-05-13T13:46:29.619Z,0.40
2023-05-13T13:47:39.794Z,0.40
2023-05-13T13:48:49.746Z,0.40
2023-05-13T13:49:59.700Z,0.40
2023-05-13T13:51:09.573Z,0.40
2023-05-13T13:52:19.746Z,0.40
2023-05-13T13:53:29.684Z,0.43
2023-05-13T13:54:39.577Z,0.47
2023-05-13T13:55:49.514Z,0.40
2023-05-13T13:56:59.525Z,0.32
2023-05-13T13:58:09.488Z,0.40
2023-05-13T13:59:19.461Z,0.65
2023-05-13T14:00:29.358Z,0.50
2023-05-13T14:01:39.372Z,0.70
2023-05-13T14:02:49.496Z,0.40
2023-05-13T14:04:12.265Z,0.40
2023-05-13T14:05:22.258Z,0.47
2023-05-13T14:06:32.252Z,0.40
2023-05-13T14:07:43.244Z,0.45
2023-05-13T14:08:54.067Z,0.47
2023-05-13T14:10:05.434Z,0.40
2023-05-13T14:11:15.366Z,0.40
2023-05-13T14:12:25.300Z,0.50
2023-05-13T14:13:36.085Z,0.40
2023-05-13T14:14:45.928Z,0.60
2023-05-13T14:15:56.158Z,0.68
2023-05-13T14:17:06.263Z,0.43
2023-05-13T14:18:16.169Z,0.40
2023-05-13T14:19:27.362Z,0.40
2023-05-13T14:20:37.335Z,0.40
2023-05-13T14:21:47.238Z,0.40
2023-05-13T14:22:57.147Z,0.45
2023-05-13T14:24:07.155Z,0.47
2023-05-13T14:25:17.181Z,0.50
2023-05-13T14:26:27.210Z,0.40
2023-05-13T14:27:37.468Z,0.52
2023-05-13T14:28:47.468Z,0.55
2023-05-13T14:29:57.453Z,0.43
2023-05-13T14:31:07.753Z,0.55
2023-05-13T14:32:17.991Z,0.60
2023-05-13T14:33:28.053Z,0.60
2023-05-13T14:34:38.071Z,0.30
2023-05-13T14:35:48.063Z,0.40
2023-05-13T14:36:58.065Z,0.55
2023-05-13T14:38:08.158Z,0.40
2023-05-13T14:39:18.136Z,0.60
2023-05-13T14:40:28.089Z,0.30
2023-05-13T14:41:38.055Z,0.60
2023-05-13T14:42:48.034Z,0.68
2023-05-13T14:43:57.994Z,0.50
2023-05-13T14:45:08.164Z,0.63
2023-05-13T14:46:18.226Z,0.50
2023-05-13T14:47:28.184Z,0.45
2023-05-13T14:48:38.179Z,0.30
2023-05-13T14:49:48.117Z,0.40
2023-05-13T14:50:58.092Z,0.45
2023-05-13T14:52:08.212Z,0.30
2023-05-13T14:53:18.173Z,0.45
2023-05-13T14:54:28.117Z,0.40
2023-05-13T14:55:38.391Z,0.40
2023-05-13T14:56:48.539Z,0.40
2023-05-13T14:57:58.524Z,0.90
2023-05-13T14:59:08.615Z,0.60
2023-05-13T15:00:18.645Z,0.40
2023-05-13T15:01:28.873Z,0.43
2023-05-13T15:02:39.001Z,0.47
2023-05-13T15:03:48.977Z,0.40
2023-05-13T15:04:58.949Z,0.63
2023-05-13T15:06:08.940Z,0.47
2023-05-13T15:07:19.241Z,0.43
2023-05-13T15:08:29.304Z,0.50
2023-05-13T15:09:39.294Z,0.57
2023-05-13T15:10:49.314Z,0.50
2023-05-13T15:11:59.222Z,0.60
2023-05-13T15:13:09.268Z,0.55
2023-05-13T15:14:19.168Z,0.40
2023-05-13T15:15:29.071Z,0.43
2023-05-13T15:16:39.028Z,0.60
2023-05-13T15:17:49.053Z,0.70
2023-05-13T15:18:59.065Z,0.60
2023-05-13T15:20:09.188Z,0.40
2023-05-13T15:21:19.135Z,0.40
2023-05-13T15:22:29.065Z,0.30
2023-05-13T15:23:39.040Z,0.40
2023-05-13T15:24:49.028Z,0.25
2023-05-13T15:25:58.986Z,0.35
2023-05-13T15:27:09.662Z,0.60
2023-05-13T15:28:19.562Z,0.40
2023-05-13T15:29:29.672Z,0.60
2023-05-13T15:30:39.691Z,0.50
2023-05-13T15:31:49.796Z,0.50
2023-05-13T15:32:59.900Z,0.40
2023-05-13T15:34:09.897Z,0.70
2023-05-13T15:35:19.830Z,0.40
2023-05-13T15:36:29.759Z,0.30
2023-05-13T15:37:41.099Z,0.20
2023-05-13T15:38:51.045Z,0.30
2023-05-13T15:40:00.971Z,0.40
2023-05-13T15:41:11.095Z,0.30
2023-05-13T15:42:20.995Z,0.32
2023-05-13T15:43:30.997Z,0.30
2023-05-13T15:44:41.258Z,0.28
2023-05-13T15:45:51.260Z,0.50
2023-05-13T15:47:01.442Z,0.40
2023-05-13T15:48:11.452Z,0.30
2023-05-13T15:49:21.462Z,0.60
2023-05-13T15:50:31.319Z,0.40
2023-05-13T15:51:41.189Z,0.50